LFPM 191800Z AUTO 02009KT 350V060 9999 FEW022/// BKN033/// BKN048/// ///TCU 05/01 Q1008

Les avions qui composent notre flotte

Avion Robin DR400 2+2

L'avion école par excellence

F-GAVN
   * tarif promotionnel appliqué pendant la formation des élèves non brevetés


F-GAVN Planche